sensor_id;sensor_type;location;lat;lon;timestamp;P1;durP1;ratioP1;P2;durP2;ratioP2
42018;SDS011;27703;51.980;5.848;2023-06-14T00:01:16;3.72;;;0.60;;
42018;SDS011;27703;51.980;5.848;2023-06-14T00:03:45;1.33;;;0.40;;
42018;SDS011;27703;51.980;5.848;2023-06-14T00:06:12;3.10;;;0.30;;
42018;SDS011;27703;51.980;5.848;2023-06-14T00:08:38;1.15;;;0.50;;
42018;SDS011;27703;51.980;5.848;2023-06-14T00:11:04;2.47;;;0.35;;
42018;SDS011;27703;51.980;5.848;2023-06-14T00:13:30;2.22;;;0.40;;
42018;SDS011;27703;51.980;5.848;2023-06-14T00:15:55;1.45;;;0.60;;
42018;SDS011;27703;51.980;5.848;2023-06-14T00:18:21;1.42;;;0.40;;
42018;SDS011;27703;51.980;5.848;2023-06-14T00:20:54;1.45;;;0.45;;
42018;SDS011;27703;51.980;5.848;2023-06-14T00:23:20;1.77;;;0.30;;
42018;SDS011;27703;51.980;5.848;2023-06-14T00:25:45;1.08;;;0.32;;
42018;SDS011;27703;51.980;5.848;2023-06-14T00:28:11;1.20;;;0.40;;
42018;SDS011;27703;51.980;5.848;2023-06-14T00:30:37;0.95;;;0.40;;
42018;SDS011;27703;51.980;5.848;2023-06-14T00:33:02;1.17;;;0.43;;
42018;SDS011;27703;51.980;5.848;2023-06-14T00:35:28;2.25;;;0.50;;
42018;SDS011;27703;51.980;5.848;2023-06-14T00:37:54;1.38;;;0.40;;
42018;SDS011;27703;51.980;5.848;2023-06-14T00:40:20;2.55;;;0.40;;
42018;SDS011;27703;51.980;5.848;2023-06-14T00:42:46;6.30;;;0.60;;
42018;SDS011;27703;51.980;5.848;2023-06-14T00:45:12;1.10;;;0.40;;
42018;SDS011;27703;51.980;5.848;2023-06-14T00:47:37;2.72;;;0.40;;
42018;SDS011;27703;51.980;5.848;2023-06-14T00:50:07;2.15;;;0.40;;
42018;SDS011;27703;51.980;5.848;2023-06-14T00:52:34;1.15;;;0.40;;
42018;SDS011;27703;51.980;5.848;2023-06-14T00:55:01;1.35;;;0.43;;
42018;SDS011;27703;51.980;5.848;2023-06-14T00:57:27;1.15;;;0.60;;
42018;SDS011;27703;51.980;5.848;2023-06-14T00:59:54;1.70;;;0.50;;
42018;SDS011;27703;51.980;5.848;2023-06-14T01:02:20;1.50;;;0.50;;
42018;SDS011;27703;51.980;5.848;2023-06-14T01:04:46;3.53;;;0.45;;
42018;SDS011;27703;51.980;5.848;2023-06-14T01:12:35;1.73;;;0.50;;
42018;SDS011;27703;51.980;5.848;2023-06-14T01:15:11;2.90;;;0.40;;
42018;SDS011;27703;51.980;5.848;2023-06-14T01:17:38;0.88;;;0.40;;
42018;SDS011;27703;51.980;5.848;2023-06-14T01:20:08;1.40;;;0.60;;
42018;SDS011;27703;51.980;5.848;2023-06-14T01:22:52;1.55;;;0.50;;
42018;SDS011;27703;51.980;5.848;2023-06-14T01:25:19;2.65;;;0.50;;
42018;SDS011;27703;51.980;5.848;2023-06-14T01:27:51;0.95;;;0.50;;
42018;SDS011;27703;51.980;5.848;2023-06-14T01:30:23;0.73;;;0.30;;
42018;SDS011;27703;51.980;5.848;2023-06-14T01:32:50;2.00;;;0.38;;
42018;SDS011;27703;51.980;5.848;2023-06-14T01:35:18;2.20;;;0.40;;
42018;SDS011;27703;51.980;5.848;2023-06-14T01:37:43;2.13;;;0.43;;
42018;SDS011;27703;51.980;5.848;2023-06-14T01:40:12;2.58;;;0.90;;
42018;SDS011;27703;51.980;5.848;2023-06-14T01:42:39;3.13;;;0.50;;
42018;SDS011;27703;51.980;5.848;2023-06-14T01:45:05;1.20;;;0.50;;
42018;SDS011;27703;51.980;5.848;2023-06-14T01:47:32;2.38;;;0.40;;
42018;SDS011;27703;51.980;5.848;2023-06-14T01:49:59;2.20;;;0.35;;
42018;SDS011;27703;51.980;5.848;2023-06-14T01:52:24;1.35;;;0.50;;
42018;SDS011;27703;51.980;5.848;2023-06-14T01:54:50;3.22;;;0.50;;
42018;SDS011;27703;51.980;5.848;2023-06-14T01:57:16;1.27;;;0.40;;
42018;SDS011;27703;51.980;5.848;2023-06-14T01:59:42;1.38;;;0.40;;
42018;SDS011;27703;51.980;5.848;2023-06-14T02:02:07;1.13;;;0.40;;
42018;SDS011;27703;51.980;5.848;2023-06-14T02:04:33;0.80;;;0.30;;
42018;SDS011;27703;51.980;5.848;2023-06-14T02:06:59;0.73;;;0.30;;
42018;SDS011;27703;51.980;5.848;2023-06-14T02:09:25;2.70;;;0.40;;
42018;SDS011;27703;51.980;5.848;2023-06-14T02:11:50;1.30;;;0.30;;
42018;SDS011;27703;51.980;5.848;2023-06-14T02:14:16;1.77;;;0.32;;
42018;SDS011;27703;51.980;5.848;2023-06-14T02:16:42;1.30;;;0.40;;
42018;SDS011;27703;51.980;5.848;2023-06-14T02:19:14;1.77;;;0.40;;
42018;SDS011;27703;51.980;5.848;2023-06-14T02:21:40;2.55;;;0.40;;
42018;SDS011;27703;51.980;5.848;2023-06-14T02:24:06;3.88;;;0.50;;
42018;SDS011;27703;51.980;5.848;2023-06-14T02:26:32;1.00;;;0.40;;
42018;SDS011;27703;51.980;5.848;2023-06-14T02:28:57;1.55;;;0.40;;
42018;SDS011;27703;51.980;5.848;2023-06-14T02:31:23;2.85;;;0.60;;
42018;SDS011;27703;51.980;5.848;2023-06-14T02:33:49;1.02;;;0.32;;
42018;SDS011;27703;51.980;5.848;2023-06-14T02:36:15;2.08;;;0.28;;
42018;SDS011;27703;51.980;5.848;2023-06-14T02:38:40;2.75;;;0.45;;
42018;SDS011;27703;51.980;5.848;2023-06-14T02:41:06;0.70;;;0.30;;
42018;SDS011;27703;51.980;5.848;2023-06-14T02:43:31;0.75;;;0.35;;
42018;SDS011;27703;51.980;5.848;2023-06-14T02:45:57;2.63;;;0.40;;
42018;SDS011;27703;51.980;5.848;2023-06-14T02:48:22;9.68;;;1.30;;
42018;SDS011;27703;51.980;5.848;2023-06-14T02:50:48;1.25;;;0.40;;
42018;SDS011;27703;51.980;5.848;2023-06-14T02:53:13;1.90;;;0.38;;
42018;SDS011;27703;51.980;5.848;2023-06-14T02:55:39;3.67;;;0.30;;
42018;SDS011;27703;51.980;5.848;2023-06-14T02:58:05;2.47;;;0.43;;
42018;SDS011;27703;51.980;5.848;2023-06-14T03:00:31;1.30;;;0.40;;
42018;SDS011;27703;51.980;5.848;2023-06-14T03:02:57;1.25;;;0.40;;
42018;SDS011;27703;51.980;5.848;2023-06-14T03:05:26;0.95;;;0.30;;
42018;SDS011;27703;51.980;5.848;2023-06-14T03:07:53;1.20;;;0.50;;
42018;SDS011;27703;51.980;5.848;2023-06-14T03:10:18;0.90;;;0.32;;
42018;SDS011;27703;51.980;5.848;2023-06-14T03:12:44;4.53;;;0.50;;
42018;SDS011;27703;51.980;5.848;2023-06-14T03:15:10;2.20;;;0.38;;
42018;SDS011;27703;51.980;5.848;2023-06-14T03:17:38;1.35;;;0.40;;
42018;SDS011;27703;51.980;5.848;2023-06-14T03:20:04;1.00;;;0.30;;
42018;SDS011;27703;51.980;5.848;2023-06-14T03:22:30;2.88;;;0.30;;
42018;SDS011;27703;51.980;5.848;2023-06-14T03:24:59;0.85;;;0.40;;
42018;SDS011;27703;51.980;5.848;2023-06-14T03:27:25;1.70;;;0.40;;
42018;SDS011;27703;51.980;5.848;2023-06-14T03:29:50;0.90;;;0.30;;
42018;SDS011;27703;51.980;5.848;2023-06-14T03:32:16;4.32;;;0.50;;
42018;SDS011;27703;51.980;5.848;2023-06-14T03:34:42;5.30;;;0.40;;
42018;SDS011;27703;51.980;5.848;2023-06-14T03:37:07;3.92;;;0.50;;
42018;SDS011;27703;51.980;5.848;2023-06-14T03:39:33;7.65;;;0.40;;
42018;SDS011;27703;51.980;5.848;2023-06-14T03:41:58;3.65;;;0.38;;
42018;SDS011;27703;51.980;5.848;2023-06-14T03:44:26;1.00;;;0.30;;
42018;SDS011;27703;51.980;5.848;2023-06-14T03:46:52;3.75;;;0.30;;
42018;SDS011;27703;51.980;5.848;2023-06-14T03:49:18;1.83;;;0.32;;
42018;SDS011;27703;51.980;5.848;2023-06-14T03:51:43;0.77;;;0.32;;
42018;SDS011;27703;51.980;5.848;2023-06-14T03:54:10;1.50;;;0.40;;
42018;SDS011;27703;51.980;5.848;2023-06-14T03:56:35;1.40;;;0.40;;
42018;SDS011;27703;51.980;5.848;2023-06-14T03:59:01;1.27;;;0.40;;
42018;SDS011;27703;51.980;5.848;2023-06-14T04:01:27;1.48;;;0.40;;
42018;SDS011;27703;51.980;5.848;2023-06-14T04:03:55;0.70;;;0.30;;
42018;SDS011;27703;51.980;5.848;2023-06-14T04:06:22;1.45;;;0.38;;
42018;SDS011;27703;51.980;5.848;2023-06-14T04:08:49;1.17;;;0.40;;
42018;SDS011;27703;51.980;5.848;2023-06-14T04:11:15;2.75;;;0.40;;
42018;SDS011;27703;51.980;5.848;2023-06-14T04:13:41;1.25;;;0.30;;
42018;SDS011;27703;51.980;5.848;2023-06-14T04:16:07;2.45;;;0.40;;
42018;SDS011;27703;51.980;5.848;2023-06-14T04:18:32;1.88;;;0.30;;
42018;SDS011;27703;51.980;5.848;2023-06-14T04:20:58;1.55;;;0.30;;
42018;SDS011;27703;51.980;5.848;2023-06-14T04:23:24;2.05;;;0.45;;
42018;SDS011;27703;51.980;5.848;2023-06-14T04:25:49;0.95;;;0.30;;
42018;SDS011;27703;51.980;5.848;2023-06-14T04:28:15;2.17;;;0.40;;
42018;SDS011;27703;51.980;5.848;2023-06-14T04:30:42;1.85;;;0.30;;
42018;SDS011;27703;51.980;5.848;2023-06-14T04:33:09;0.93;;;0.30;;
42018;SDS011;27703;51.980;5.848;2023-06-14T04:35:35;3.83;;;0.30;;
42018;SDS011;27703;51.980;5.848;2023-06-14T04:38:02;2.45;;;0.30;;
42018;SDS011;27703;51.980;5.848;2023-06-14T04:40:35;0.85;;;0.38;;
42018;SDS011;27703;51.980;5.848;2023-06-14T04:43:07;1.27;;;0.38;;
42018;SDS011;27703;51.980;5.848;2023-06-14T04:45:33;0.95;;;0.30;;
42018;SDS011;27703;51.980;5.848;2023-06-14T04:47:59;2.28;;;0.30;;
42018;SDS011;27703;51.980;5.848;2023-06-14T04:50:25;0.88;;;0.30;;
42018;SDS011;27703;51.980;5.848;2023-06-14T04:52:50;2.72;;;0.40;;
42018;SDS011;27703;51.980;5.848;2023-06-14T04:55:18;1.17;;;0.40;;
42018;SDS011;27703;51.980;5.848;2023-06-14T04:57:44;4.03;;;0.30;;
42018;SDS011;27703;51.980;5.848;2023-06-14T05:00:10;1.30;;;0.28;;
42018;SDS011;27703;51.980;5.848;2023-06-14T05:02:36;0.82;;;0.30;;
42018;SDS011;27703;51.980;5.848;2023-06-14T05:05:03;2.03;;;0.30;;
42018;SDS011;27703;51.980;5.848;2023-06-14T05:07:32;1.30;;;0.40;;
42018;SDS011;27703;51.980;5.848;2023-06-14T05:09:58;2.05;;;0.40;;
42018;SDS011;27703;51.980;5.848;2023-06-14T05:12:24;2.15;;;0.47;;
42018;SDS011;27703;51.980;5.848;2023-06-14T05:14:50;1.35;;;0.30;;
42018;SDS011;27703;51.980;5.848;2023-06-14T05:17:16;4.22;;;0.40;;
42018;SDS011;27703;51.980;5.848;2023-06-14T05:19:42;0.65;;;0.30;;
42018;SDS011;27703;51.980;5.848;2023-06-14T05:22:08;1.05;;;0.35;;
42018;SDS011;27703;51.980;5.848;2023-06-14T05:24:33;1.00;;;0.40;;
42018;SDS011;27703;51.980;5.848;2023-06-14T05:26:59;2.40;;;0.32;;
42018;SDS011;27703;51.980;5.848;2023-06-14T05:29:25;1.17;;;0.30;;
42018;SDS011;27703;51.980;5.848;2023-06-14T05:31:51;0.90;;;0.40;;
42018;SDS011;27703;51.980;5.848;2023-06-14T05:34:16;4.18;;;0.30;;
42018;SDS011;27703;51.980;5.848;2023-06-14T05:36:42;1.40;;;0.32;;
42018;SDS011;27703;51.980;5.848;2023-06-14T05:39:07;1.40;;;0.30;;
42018;SDS011;27703;51.980;5.848;2023-06-14T05:41:33;1.00;;;0.30;;
42018;SDS011;27703;51.980;5.848;2023-06-14T05:43:59;1.63;;;0.40;;
42018;SDS011;27703;51.980;5.848;2023-06-14T05:46:25;1.38;;;0.40;;
42018;SDS011;27703;51.980;5.848;2023-06-14T05:48:51;1.20;;;0.30;;
42018;SDS011;27703;51.980;5.848;2023-06-14T05:51:17;0.60;;;0.30;;
42018;SDS011;27703;51.980;5.848;2023-06-14T05:53:46;2.35;;;0.30;;
42018;SDS011;27703;51.980;5.848;2023-06-14T05:56:12;1.00;;;0.40;;
42018;SDS011;27703;51.980;5.848;2023-06-14T05:58:38;1.05;;;0.30;;
42018;SDS011;27703;51.980;5.848;2023-06-14T06:01:03;2.88;;;0.35;;
42018;SDS011;27703;51.980;5.848;2023-06-14T06:03:29;0.80;;;0.30;;
42018;SDS011;27703;51.980;5.848;2023-06-14T06:05:55;3.47;;;0.30;;
42018;SDS011;27703;51.980;5.848;2023-06-14T06:08:21;0.70;;;0.35;;
42018;SDS011;27703;51.980;5.848;2023-06-14T06:10:46;2.15;;;0.40;;
42018;SDS011;27703;51.980;5.848;2023-06-14T06:13:12;0.75;;;0.30;;
42018;SDS011;27703;51.980;5.848;2023-06-14T06:15:37;1.92;;;0.35;;
42018;SDS011;27703;51.980;5.848;2023-06-14T06:18:03;1.60;;;0.40;;
42018;SDS011;27703;51.980;5.848;2023-06-14T06:20:29;0.93;;;0.40;;
42018;SDS011;27703;51.980;5.848;2023-06-14T06:22:56;1.65;;;0.82;;
42018;SDS011;27703;51.980;5.848;2023-06-14T06:25:23;2.38;;;0.40;;
42018;SDS011;27703;51.980;5.848;2023-06-14T06:27:50;0.65;;;0.30;;
42018;SDS011;27703;51.980;5.848;2023-06-14T06:30:17;0.85;;;0.30;;
42018;SDS011;27703;51.980;5.848;2023-06-14T06:32:43;1.20;;;0.30;;
42018;SDS011;27703;51.980;5.848;2023-06-14T06:35:08;2.67;;;0.50;;
42018;SDS011;27703;51.980;5.848;2023-06-14T06:37:35;1.00;;;0.40;;
42018;SDS011;27703;51.980;5.848;2023-06-14T06:40:01;1.63;;;0.40;;
42018;SDS011;27703;51.980;5.848;2023-06-14T06:42:30;3.92;;;0.40;;
42018;SDS011;27703;51.980;5.848;2023-06-14T06:44:56;2.65;;;0.40;;
42018;SDS011;27703;51.980;5.848;2023-06-14T06:47:22;0.95;;;0.30;;
42018;SDS011;27703;51.980;5.848;2023-06-14T06:49:47;1.30;;;0.50;;
42018;SDS011;27703;51.980;5.848;2023-06-14T06:52:13;0.98;;;0.40;;
42018;SDS011;27703;51.980;5.848;2023-06-14T06:54:39;0.85;;;0.32;;
42018;SDS011;27703;51.980;5.848;2023-06-14T06:57:04;0.80;;;0.30;;
42018;SDS011;27703;51.980;5.848;2023-06-14T06:59:31;1.00;;;0.40;;
42018;SDS011;27703;51.980;5.848;2023-06-14T07:01:56;0.90;;;0.40;;
42018;SDS011;27703;51.980;5.848;2023-06-14T07:04:22;3.22;;;0.40;;
42018;SDS011;27703;51.980;5.848;2023-06-14T07:06:48;2.50;;;0.40;;
42018;SDS011;27703;51.980;5.848;2023-06-14T07:09:13;2.40;;;0.40;;
42018;SDS011;27703;51.980;5.848;2023-06-14T07:11:41;0.85;;;0.40;;
42018;SDS011;27703;51.980;5.848;2023-06-14T07:14:07;2.80;;;0.40;;
42018;SDS011;27703;51.980;5.848;2023-06-14T07:16:33;2.28;;;0.47;;
42018;SDS011;27703;51.980;5.848;2023-06-14T07:18:59;1.85;;;0.30;;
42018;SDS011;27703;51.980;5.848;2023-06-14T07:21:25;2.10;;;0.30;;
42018;SDS011;27703;51.980;5.848;2023-06-14T07:23:52;2.85;;;0.43;;
42018;SDS011;27703;51.980;5.848;2023-06-14T07:26:18;1.77;;;0.30;;
42018;SDS011;27703;51.980;5.848;2023-06-14T07:28:44;1.63;;;0.30;;
42018;SDS011;27703;51.980;5.848;2023-06-14T07:31:11;0.60;;;0.30;;
42018;SDS011;27703;51.980;5.848;2023-06-14T07:33:37;2.35;;;0.30;;
42018;SDS011;27703;51.980;5.848;2023-06-14T07:36:03;0.57;;;0.22;;
42018;SDS011;27703;51.980;5.848;2023-06-14T07:38:29;1.70;;;0.30;;
42018;SDS011;27703;51.980;5.848;2023-06-14T07:40:54;2.70;;;0.30;;
42018;SDS011;27703;51.980;5.848;2023-06-14T07:43:20;0.98;;;0.30;;
42018;SDS011;27703;51.980;5.848;2023-06-14T07:45:45;0.90;;;0.20;;
42018;SDS011;27703;51.980;5.848;2023-06-14T07:48:11;0.40;;;0.20;;
42018;SDS011;27703;51.980;5.848;2023-06-14T07:50:36;1.15;;;0.20;;
42018;SDS011;27703;51.980;5.848;2023-06-14T07:53:02;1.55;;;0.20;;
42018;SDS011;27703;51.980;5.848;2023-06-14T07:55:28;0.90;;;0.20;;
42018;SDS011;27703;51.980;5.848;2023-06-14T07:57:53;1.15;;;0.20;;
42018;SDS011;27703;51.980;5.848;2023-06-14T08:00:19;2.47;;;0.25;;
42018;SDS011;27703;51.980;5.848;2023-06-14T08:02:45;0.35;;;0.20;;
42018;SDS011;27703;51.980;5.848;2023-06-14T08:05:11;0.60;;;0.20;;
42018;SDS011;27703;51.980;5.848;2023-06-14T08:07:37;1.02;;;0.28;;
42018;SDS011;27703;51.980;5.848;2023-06-14T08:10:06;0.45;;;0.20;;
42018;SDS011;27703;51.980;5.848;2023-06-14T08:12:33;0.57;;;0.17;;
42018;SDS011;27703;51.980;5.848;2023-06-14T08:14:59;0.38;;;0.10;;
42018;SDS011;27703;51.980;5.848;2023-06-14T08:17:25;0.43;;;0.20;;
42018;SDS011;27703;51.980;5.848;2023-06-14T08:19:51;0.47;;;0.20;;
42018;SDS011;27703;51.980;5.848;2023-06-14T08:22:17;0.40;;;0.13;;
42018;SDS011;27703;51.980;5.848;2023-06-14T08:24:43;1.67;;;0.20;;
42018;SDS011;27703;51.980;5.848;2023-06-14T08:27:09;2.00;;;0.25;;
42018;SDS011;27703;51.980;5.848;2023-06-14T08:29:34;0.47;;;0.20;;
42018;SDS011;27703;51.980;5.848;2023-06-14T08:32:00;1.17;;;0.20;;
42018;SDS011;27703;51.980;5.848;2023-06-14T08:34:26;2.40;;;0.20;;
42018;SDS011;27703;51.980;5.848;2023-06-14T08:36:52;1.00;;;0.25;;
42018;SDS011;27703;51.980;5.848;2023-06-14T08:39:18;0.55;;;0.20;;
42018;SDS011;27703;51.980;5.848;2023-06-14T08:41:46;1.70;;;0.40;;
42018;SDS011;27703;51.980;5.848;2023-06-14T08:44:16;2.65;;;0.30;;
42018;SDS011;27703;51.980;5.848;2023-06-14T08:46:42;0.82;;;0.28;;
42018;SDS011;27703;51.980;5.848;2023-06-14T08:49:08;0.52;;;0.20;;
42018;SDS011;27703;51.980;5.848;2023-06-14T08:51:36;0.55;;;0.20;;
42018;SDS011;27703;51.980;5.848;2023-06-14T08:54:02;0.52;;;0.20;;
42018;SDS011;27703;51.980;5.848;2023-06-14T08:56:29;0.60;;;0.30;;
42018;SDS011;27703;51.980;5.848;2023-06-14T08:58:58;1.00;;;0.30;;
42018;SDS011;27703;51.980;5.848;2023-06-14T09:01:30;0.50;;;0.20;;
42018;SDS011;27703;51.980;5.848;2023-06-14T09:03:59;1.05;;;0.30;;
42018;SDS011;27703;51.980;5.848;2023-06-14T09:06:25;2.90;;;0.25;;
42018;SDS011;27703;51.980;5.848;2023-06-14T09:08:53;3.30;;;0.30;;
42018;SDS011;27703;51.980;5.848;2023-06-14T09:11:21;1.70;;;0.20;;
42018;SDS011;27703;51.980;5.848;2023-06-14T09:13:49;1.38;;;0.30;;
42018;SDS011;27703;51.980;5.848;2023-06-14T09:16:15;2.92;;;0.38;;
42018;SDS011;27703;51.980;5.848;2023-06-14T09:18:44;1.55;;;0.20;;
42018;SDS011;27703;51.980;5.848;2023-06-14T09:21:12;0.60;;;0.20;;
42018;SDS011;27703;51.980;5.848;2023-06-14T09:23:39;1.50;;;0.20;;
42018;SDS011;27703;51.980;5.848;2023-06-14T09:26:10;0.82;;;0.22;;
42018;SDS011;27703;51.980;5.848;2023-06-14T09:28:43;0.50;;;0.20;;
42018;SDS011;27703;51.980;5.848;2023-06-14T09:31:10;0.50;;;0.17;;
42018;SDS011;27703;51.980;5.848;2023-06-14T09:33:36;0.60;;;0.15;;
42018;SDS011;27703;51.980;5.848;2023-06-14T09:36:01;1.20;;;0.20;;
42018;SDS011;27703;51.980;5.848;2023-06-14T09:38:27;1.00;;;0.20;;
42018;SDS011;27703;51.980;5.848;2023-06-14T09:40:55;1.20;;;0.20;;
42018;SDS011;27703;51.980;5.848;2023-06-14T09:43:23;2.05;;;0.30;;
42018;SDS011;27703;51.980;5.848;2023-06-14T09:45:51;0.47;;;0.10;;
42018;SDS011;27703;51.980;5.848;2023-06-14T09:48:17;0.52;;;0.20;;
42018;SDS011;27703;51.980;5.848;2023-06-14T09:50:45;0.70;;;0.20;;
42018;SDS011;27703;51.980;5.848;2023-06-14T09:53:12;0.65;;;0.20;;
42018;SDS011;27703;51.980;5.848;2023-06-14T09:55:40;0.55;;;0.20;;
42018;SDS011;27703;51.980;5.848;2023-06-14T09:58:06;3.35;;;0.20;;
42018;SDS011;27703;51.980;5.848;2023-06-14T10:00:34;1.95;;;0.30;;
42018;SDS011;27703;51.980;5.848;2023-06-14T10:03:03;3.38;;;0.13;;
42018;SDS011;27703;51.980;5.848;2023-06-14T10:05:34;0.60;;;0.10;;
42018;SDS011;27703;51.980;5.848;2023-06-14T10:08:05;1.33;;;0.20;;
42018;SDS011;27703;51.980;5.848;2023-06-14T10:10:34;0.80;;;0.20;;
42018;SDS011;27703;51.980;5.848;2023-06-14T10:12:59;0.68;;;0.20;;
42018;SDS011;27703;51.980;5.848;2023-06-14T10:15:38;0.90;;;0.30;;
42018;SDS011;27703;51.980;5.848;2023-06-14T10:18:19;0.82;;;0.20;;
42018;SDS011;27703;51.980;5.848;2023-06-14T10:21:04;0.93;;;0.13;;
42018;SDS011;27703;51.980;5.848;2023-06-14T10:23:39;0.95;;;0.20;;
42018;SDS011;27703;51.980;5.848;2023-06-14T10:26:07;0.65;;;0.20;;
42018;SDS011;27703;51.980;5.848;2023-06-14T10:28:34;1.13;;;0.17;;
42018;SDS011;27703;51.980;5.848;2023-06-14T10:33:31;0.70;;;0.20;;
42018;SDS011;27703;51.980;5.848;2023-06-14T10:36:24;0.30;;;0.10;;
42018;SDS011;27703;51.980;5.848;2023-06-14T10:41:24;0.50;;;0.10;;
42018;SDS011;27703;51.980;5.848;2023-06-14T10:43:52;1.45;;;0.20;;
42018;SDS011;27703;51.980;5.848;2023-06-14T10:46:18;0.95;;;0.20;;
42018;SDS011;27703;51.980;5.848;2023-06-14T10:48:48;1.38;;;0.20;;
42018;SDS011;27703;51.980;5.848;2023-06-14T10:51:20;1.70;;;0.20;;
42018;SDS011;27703;51.980;5.848;2023-06-14T10:53:46;0.40;;;0.17;;
42018;SDS011;27703;51.980;5.848;2023-06-14T10:58:56;0.40;;;0.20;;
42018;SDS011;27703;51.980;5.848;2023-06-14T11:01:25;0.40;;;0.10;;
42018;SDS011;27703;51.980;5.848;2023-06-14T11:04:08;0.60;;;0.20;;
42018;SDS011;27703;51.980;5.848;2023-06-14T11:06:44;0.57;;;0.20;;
42018;SDS011;27703;51.980;5.848;2023-06-14T11:12:16;0.88;;;0.30;;
42018;SDS011;27703;51.980;5.848;2023-06-14T11:14:45;3.58;;;0.20;;
42018;SDS011;27703;51.980;5.848;2023-06-14T11:17:12;1.33;;;0.20;;
42018;SDS011;27703;51.980;5.848;2023-06-14T11:19:38;0.63;;;0.22;;
42018;SDS011;27703;51.980;5.848;2023-06-14T11:22:03;0.55;;;0.20;;
42018;SDS011;27703;51.980;5.848;2023-06-14T11:24:29;0.40;;;0.20;;
42018;SDS011;27703;51.980;5.848;2023-06-14T11:26:57;0.40;;;0.15;;
42018;SDS011;27703;51.980;5.848;2023-06-14T11:29:23;0.55;;;0.20;;
42018;SDS011;27703;51.980;5.848;2023-06-14T11:31:49;0.70;;;0.20;;
42018;SDS011;27703;51.980;5.848;2023-06-14T11:34:15;0.82;;;0.20;;
42018;SDS011;27703;51.980;5.848;2023-06-14T11:36:41;0.65;;;0.20;;
42018;SDS011;27703;51.980;5.848;2023-06-14T11:39:07;0.47;;;0.10;;
42018;SDS011;27703;51.980;5.848;2023-06-14T11:41:37;0.98;;;0.20;;
42018;SDS011;27703;51.980;5.848;2023-06-14T11:44:03;0.30;;;0.10;;
42018;SDS011;27703;51.980;5.848;2023-06-14T11:46:28;0.40;;;0.17;;
42018;SDS011;27703;51.980;5.848;2023-06-14T11:48:54;0.75;;;0.30;;
42018;SDS011;27703;51.980;5.848;2023-06-14T11:51:20;0.50;;;0.20;;
42018;SDS011;27703;51.980;5.848;2023-06-14T11:53:45;1.02;;;0.20;;
42018;SDS011;27703;51.980;5.848;2023-06-14T11:56:11;0.75;;;0.20;;
42018;SDS011;27703;51.980;5.848;2023-06-14T11:58:37;1.77;;;0.20;;
42018;SDS011;27703;51.980;5.848;2023-06-14T12:01:03;1.23;;;0.30;;
42018;SDS011;27703;51.980;5.848;2023-06-14T12:03:29;1.98;;;0.25;;
42018;SDS011;27703;51.980;5.848;2023-06-14T12:06:01;1.95;;;0.20;;
42018;SDS011;27703;51.980;5.848;2023-06-14T12:08:35;0.93;;;0.30;;
42018;SDS011;27703;51.980;5.848;2023-06-14T12:11:14;0.88;;;0.20;;
42018;SDS011;27703;51.980;5.848;2023-06-14T12:13:40;0.40;;;0.17;;
42018;SDS011;27703;51.980;5.848;2023-06-14T12:16:10;0.93;;;0.40;;
42018;SDS011;27703;51.980;5.848;2023-06-14T12:18:37;0.45;;;0.13;;
42018;SDS011;27703;51.980;5.848;2023-06-14T12:21:04;0.32;;;0.13;;
42018;SDS011;27703;51.980;5.848;2023-06-14T12:23:47;0.35;;;0.10;;
42018;SDS011;27703;51.980;5.848;2023-06-14T12:26:16;0.40;;;0.10;;
42018;SDS011;27703;51.980;5.848;2023-06-14T12:28:44;0.35;;;0.10;;
42018;SDS011;27703;51.980;5.848;2023-06-14T12:31:11;0.30;;;0.15;;
42018;SDS011;27703;51.980;5.848;2023-06-14T12:33:38;0.25;;;0.10;;
42018;SDS011;27703;51.980;5.848;2023-06-14T12:36:04;1.08;;;0.20;;
42018;SDS011;27703;51.980;5.848;2023-06-14T12:38:32;0.55;;;0.15;;
42018;SDS011;27703;51.980;5.848;2023-06-14T12:40:58;1.00;;;0.15;;
42018;SDS011;27703;51.980;5.848;2023-06-14T12:43:24;0.60;;;0.20;;
42018;SDS011;27703;51.980;5.848;2023-06-14T12:45:49;0.30;;;0.10;;
42018;SDS011;27703;51.980;5.848;2023-06-14T12:48:15;0.30;;;0.20;;
42018;SDS011;27703;51.980;5.848;2023-06-14T12:50:41;0.30;;;0.15;;
42018;SDS011;27703;51.980;5.848;2023-06-14T12:53:07;0.40;;;0.10;;
42018;SDS011;27703;51.980;5.848;2023-06-14T12:55:32;0.43;;;0.10;;
42018;SDS011;27703;51.980;5.848;2023-06-14T12:57:58;1.30;;;0.20;;
42018;SDS011;27703;51.980;5.848;2023-06-14T13:00:24;0.20;;;0.10;;
42018;SDS011;27703;51.980;5.848;2023-06-14T13:02:51;3.17;;;0.10;;
42018;SDS011;27703;51.980;5.848;2023-06-14T13:05:17;0.40;;;0.10;;
42018;SDS011;27703;51.980;5.848;2023-06-14T13:07:42;0.20;;;0.10;;
42018;SDS011;27703;51.980;5.848;2023-06-14T13:10:09;1.02;;;0.20;;
42018;SDS011;27703;51.980;5.848;2023-06-14T13:12:35;0.45;;;0.20;;
42018;SDS011;27703;51.980;5.848;2023-06-14T13:15:00;0.38;;;0.10;;
42018;SDS011;27703;51.980;5.848;2023-06-14T13:17:26;0.40;;;0.20;;
42018;SDS011;27703;51.980;5.848;2023-06-14T13:19:52;0.35;;;0.10;;
42018;SDS011;27703;51.980;5.848;2023-06-14T13:22:18;1.77;;;0.10;;
42018;SDS011;27703;51.980;5.848;2023-06-14T13:24:43;0.20;;;0.10;;
42018;SDS011;27703;51.980;5.848;2023-06-14T13:27:09;1.75;;;0.10;;
42018;SDS011;27703;51.980;5.848;2023-06-14T13:29:35;3.90;;;0.20;;
42018;SDS011;27703;51.980;5.848;2023-06-14T13:32:01;0.20;;;0.08;;
42018;SDS011;27703;51.980;5.848;2023-06-14T13:34:27;1.92;;;0.10;;
42018;SDS011;27703;51.980;5.848;2023-06-14T13:36:53;0.40;;;0.10;;
42018;SDS011;27703;51.980;5.848;2023-06-14T13:39:18;0.63;;;0.15;;
42018;SDS011;27703;51.980;5.848;2023-06-14T13:41:44;0.30;;;0.10;;
42018;SDS011;27703;51.980;5.848;2023-06-14T13:44:09;0.10;;;0.00;;
42018;SDS011;27703;51.980;5.848;2023-06-14T13:46:40;0.40;;;0.10;;
42018;SDS011;27703;51.980;5.848;2023-06-14T13:49:07;0.40;;;0.10;;
42018;SDS011;27703;51.980;5.848;2023-06-14T13:51:33;2.25;;;0.10;;
42018;SDS011;27703;51.980;5.848;2023-06-14T13:53:59;2.50;;;0.10;;
42018;SDS011;27703;51.980;5.848;2023-06-14T13:56:26;2.05;;;0.10;;
42018;SDS011;27703;51.980;5.848;2023-06-14T13:58:51;0.20;;;0.10;;
42018;SDS011;27703;51.980;5.848;2023-06-14T14:01:17;0.08;;;0.00;;
42018;SDS011;27703;51.980;5.848;2023-06-14T14:03:45;0.43;;;0.10;;
42018;SDS011;27703;51.980;5.848;2023-06-14T14:06:11;0.30;;;0.00;;
42018;SDS011;27703;51.980;5.848;2023-06-14T14:08:38;2.05;;;0.17;;
42018;SDS011;27703;51.980;5.848;2023-06-14T14:11:04;0.40;;;0.10;;
42018;SDS011;27703;51.980;5.848;2023-06-14T14:13:31;0.10;;;0.00;;
42018;SDS011;27703;51.980;5.848;2023-06-14T14:15:56;0.25;;;0.10;;
42018;SDS011;27703;51.980;5.848;2023-06-14T14:18:22;0.20;;;0.10;;
42018;SDS011;27703;51.980;5.848;2023-06-14T14:20:48;0.20;;;0.10;;
42018;SDS011;27703;51.980;5.848;2023-06-14T14:23:13;1.02;;;0.20;;
42018;SDS011;27703;51.980;5.848;2023-06-14T14:25:39;1.65;;;0.10;;
42018;SDS011;27703;51.980;5.848;2023-06-14T14:28:05;0.20;;;0.10;;
42018;SDS011;27703;51.980;5.848;2023-06-14T14:30:31;0.95;;;0.10;;
42018;SDS011;27703;51.980;5.848;2023-06-14T14:32:57;0.15;;;0.10;;
42018;SDS011;27703;51.980;5.848;2023-06-14T14:35:23;0.30;;;0.10;;
42018;SDS011;27703;51.980;5.848;2023-06-14T14:37:51;4.95;;;0.30;;
42018;SDS011;27703;51.980;5.848;2023-06-14T14:40:16;0.35;;;0.10;;
42018;SDS011;27703;51.980;5.848;2023-06-14T14:42:42;1.58;;;0.10;;
42018;SDS011;27703;51.980;5.848;2023-06-14T14:45:07;0.47;;;0.10;;
42018;SDS011;27703;51.980;5.848;2023-06-14T14:47:33;0.82;;;0.10;;
42018;SDS011;27703;51.980;5.848;2023-06-14T14:49:59;0.50;;;0.10;;
42018;SDS011;27703;51.980;5.848;2023-06-14T14:52:25;0.90;;;0.10;;
42018;SDS011;27703;51.980;5.848;2023-06-14T14:54:51;1.45;;;0.10;;
42018;SDS011;27703;51.980;5.848;2023-06-14T14:57:18;0.55;;;0.10;;
42018;SDS011;27703;51.980;5.848;2023-06-14T14:59:43;0.73;;;0.10;;
42018;SDS011;27703;51.980;5.848;2023-06-14T15:02:09;0.30;;;0.10;;